Time;durP1;ratioP1;P1;durP2;ratioP2;P2;SDS_P1;SDS_P2;PMS_P1;PMS_P2;Temp;Humidity;BMP_temperature;BMP_pressure;BME280_temperature;BME280_humidity;BME280_pressure;Samples;Min_cycle;Max_cycle;Signal;HPM_P1;HPM_P2
2022/01/30 00:02:27;;;;;;;36.38;20.72;;;2.00;99.90;;;;;;1884993;75;21167;-86
2022/01/30 00:05:19;;;;;;;36.40;21.55;;;2.00;99.90;;;;;;1913616;75;21116;-86
2022/01/30 00:10:55;;;;;;;38.23;21.35;;;1.70;99.90;;;;;;1952356;72;22163;-86
2022/01/30 00:13:42;;;;;;;34.67;19.70;;;1.80;99.90;;;;;;1865278;76;21161;-86
2022/01/30 00:16:36;;;;;;;33.38;19.52;;;1.90;99.90;;;;;;1934150;73;21043;-86
2022/01/30 00:19:35;;;;;;;32.48;19.15;;;1.80;99.90;;;;;;1917841;75;21149;-86
2022/01/30 00:22:36;;;;;;;34.98;18.90;;;1.70;99.90;;;;;;1917848;75;21058;-86
2022/01/30 00:25:26;;;;;;;33.98;19.35;;;1.70;99.90;;;;;;1917791;75;21097;-86
2022/01/30 00:28:13;;;;;;;35.38;19.07;;;1.60;99.90;;;;;;1917471;75;21161;-86
2022/01/30 00:31:05;;;;;;;37.58;20.05;;;1.60;99.90;;;;;;1917767;75;21161;-86
2022/01/30 00:33:59;;;;;;;37.83;20.50;;;1.50;99.90;;;;;;1921731;73;21058;-86
2022/01/30 00:36:50;;;;;;;36.70;19.32;;;1.50;99.90;;;;;;1876900;76;21074;-86
2022/01/30 00:39:42;;;;;;;37.85;20.37;;;1.50;99.90;;;;;;1939021;73;21043;-86
2022/01/30 00:42:34;;;;;;;37.78;20.75;;;1.40;99.90;;;;;;1933173;73;21095;-86
2022/01/30 00:45:30;;;;;;;37.98;21.33;;;1.50;99.90;;;;;;1940294;73;21112;-86
2022/01/30 00:48:23;;;;;;;40.33;20.80;;;1.50;99.90;;;;;;1859395;76;21170;-86
2022/01/30 00:51:17;;;;;;;39.18;21.30;;;1.50;99.90;;;;;;1928020;73;21225;-86
2022/01/30 00:54:09;;;;;;;36.10;19.67;;;1.60;99.90;;;;;;1933659;73;21080;-86
2022/01/30 00:57:00;;;;;;;34.40;19.65;;;1.60;99.90;;;;;;1918097;73;21054;-87
2022/01/30 00:59:54;;;;;;;32.73;18.95;;;1.50;99.90;;;;;;1917661;75;21645;-87
2022/01/30 01:02:46;;;;;;;36.75;20.85;;;1.50;99.90;;;;;;1917658;75;21056;-87
2022/01/30 01:08:27;;;;;;;36.35;21.27;;;1.50;99.90;;;;;;1958513;72;22351;-86
2022/01/30 01:11:29;;;;;;;42.00;22.85;;;1.50;99.90;;;;;;1891921;75;21120;-86
2022/01/30 01:23:26;;;;;;;41.50;23.18;;;1.60;99.90;;;;;;1898540;75;21153;-86
2022/01/30 01:26:18;;;;;;;39.38;22.25;;;1.60;99.90;;;;;;1884015;76;21102;-86
2022/01/30 01:29:10;;;;;;;42.15;22.82;;;1.60;99.90;;;;;;1914981;75;21047;-85
2022/01/30 01:32:03;;;;;;;41.40;23.10;;;1.60;99.90;;;;;;1915046;75;21056;-85
2022/01/30 01:34:55;;;;;;;44.67;24.87;;;1.60;99.90;;;;;;1905465;75;21116;-85
2022/01/30 01:37:52;;;;;;;44.45;23.20;;;1.70;99.90;;;;;;1917937;75;21128;-87
2022/01/30 01:40:51;;;;;;;44.13;23.18;;;1.70;99.90;;;;;;1897628;75;21124;-87
2022/01/30 01:43:40;;;;;;;38.60;22.13;;;1.80;99.90;;;;;;1917972;75;21047;-88
2022/01/30 01:46:35;;;;;;;40.67;22.27;;;1.80;99.90;;;;;;1892650;75;21102;-86
2022/01/30 01:49:30;;;;;;;39.55;22.37;;;1.80;99.90;;;;;;1905291;75;21146;-86
2022/01/30 01:52:23;;;;;;;38.92;22.65;;;1.80;99.90;;;;;;1901067;75;21047;-86
2022/01/30 01:55:14;;;;;;;44.45;22.58;;;1.80;99.90;;;;;;1901049;75;21134;-86
2022/01/30 01:58:07;;;;;;;40.75;22.35;;;1.80;99.90;;;;;;1891530;75;21055;-85
2022/01/30 02:01:03;;;;;;;42.15;22.60;;;1.80;99.90;;;;;;1873044;74;21063;-88
2022/01/30 02:03:55;;;;;;;41.40;22.87;;;1.80;99.90;;;;;;1898283;75;21054;-86
2022/01/30 02:06:46;;;;;;;41.85;22.27;;;1.80;99.90;;;;;;1899163;75;21043;-86
2022/01/30 02:09:39;;;;;;;41.33;22.80;;;1.80;99.90;;;;;;1895642;75;21172;-87
2022/01/30 02:12:38;;;;;;;42.17;22.93;;;1.90;99.90;;;;;;1895523;75;21063;-86
2022/01/30 02:23:54;;;;;;;41.15;22.67;;;1.80;99.90;;;;;;1896239;75;21107;-85
2022/01/30 02:25:00;;;;;;;38.00;20.68;;;1.80;99.90;;;;;;1901453;75;21062;-86
2022/01/30 02:27:47;;;;;;;41.98;22.25;;;1.80;99.90;;;;;;1917328;75;21644;-86
2022/01/30 02:30:47;;;;;;;42.25;22.27;;;1.90;99.90;;;;;;1895291;75;21099;-85
2022/01/30 02:33:35;;;;;;;40.92;22.77;;;1.80;99.90;;;;;;1895159;75;21609;-85
2022/01/30 02:39:15;;;;;;;42.53;22.93;;;1.70;99.90;;;;;;1976409;72;22170;-86
2022/01/30 02:42:10;;;;;;;38.25;21.33;;;1.70;99.90;;;;;;1918875;73;21510;-86
2022/01/30 02:45:05;;;;;;;40.90;21.62;;;1.70;99.90;;;;;;1917800;75;21085;-86
2022/01/30 02:48:11;;;;;;;37.05;21.93;;;1.70;99.90;;;;;;1880030;76;21128;-86
2022/01/30 02:50:56;;;;;;;41.42;22.50;;;1.70;99.90;;;;;;1917888;75;21146;-87
2022/01/30 02:53:55;;;;;;;40.65;21.73;;;1.60;99.90;;;;;;1917650;75;21081;-86
2022/01/30 02:56:40;;;;;;;43.73;24.23;;;1.50;99.90;;;;;;1917814;75;21080;-87
2022/01/30 02:59:32;;;;;;;42.08;22.15;;;1.60;99.90;;;;;;1917661;75;21163;-86
2022/01/30 03:02:24;;;;;;;44.13;23.18;;;1.50;99.90;;;;;;1845956;76;21140;-86
2022/01/30 03:05:16;;;;;;;46.08;23.25;;;1.50;99.90;;;;;;1934262;73;21363;-86
2022/01/30 03:08:07;;;;;;;45.27;23.20;;;1.50;99.90;;;;;;1888150;75;21140;-86
2022/01/30 03:11:01;;;;;;;43.05;22.80;;;1.50;99.90;;;;;;1880835;76;21059;-86
2022/01/30 03:13:53;;;;;;;44.18;22.22;;;1.50;99.90;;;;;;1927432;73;21196;-86
2022/01/30 03:16:46;;;;;;;41.90;23.10;;;1.50;99.90;;;;;;1917955;75;21058;-86
2022/01/30 03:19:37;;;;;;;42.58;22.58;;;1.50;99.90;;;;;;1917700;75;21084;-86
2022/01/30 03:22:29;;;;;;;58.50;31.93;;;1.50;99.90;;;;;;1917815;75;21245;-86
2022/01/30 03:25:20;;;;;;;39.18;21.97;;;1.50;99.90;;;;;;1917858;75;21050;-86
2022/01/30 03:28:16;;;;;;;42.13;22.37;;;1.60;99.90;;;;;;1917737;75;21126;-86
2022/01/30 03:31:12;;;;;;;41.48;23.05;;;1.60;99.90;;;;;;1917840;75;21581;-86
2022/01/30 03:34:10;;;;;;;40.30;22.13;;;1.60;99.90;;;;;;1917779;75;21051;-86
2022/01/30 03:37:09;;;;;;;42.70;22.27;;;1.50;99.90;;;;;;1917750;75;21103;-87
2022/01/30 03:40:01;;;;;;;45.78;21.97;;;1.50;99.90;;;;;;1949771;73;21132;-87
2022/01/30 03:42:52;;;;;;;43.80;23.27;;;1.50;99.90;;;;;;1851860;76;21487;-87
2022/01/30 03:45:44;;;;;;;44.25;23.42;;;1.60;99.90;;;;;;1918558;75;21071;-86
2022/01/30 03:48:37;;;;;;;44.42;23.75;;;1.60;99.90;;;;;;1928107;73;21058;-86
2022/01/30 03:51:33;;;;;;;41.65;22.67;;;1.60;99.90;;;;;;1928415;73;21055;-86
2022/01/30 03:54:26;;;;;;;42.08;23.00;;;1.50;99.90;;;;;;1950846;73;21114;-86
2022/01/30 03:57:19;;;;;;;42.40;23.87;;;1.50;99.90;;;;;;1863490;76;21145;-86
2022/01/30 04:00:15;;;;;;;40.95;23.57;;;1.50;99.90;;;;;;1872396;76;21157;-86
2022/01/30 04:03:09;;;;;;;45.20;22.35;;;1.50;99.90;;;;;;1926935;74;21102;-86
2022/01/30 04:06:01;;;;;;;45.12;22.90;;;1.50;99.90;;;;;;1877449;76;21107;-86
2022/01/30 04:08:54;;;;;;;44.40;22.95;;;1.50;99.90;;;;;;1862554;77;21091;-86
2022/01/30 04:11:57;;;;;;;41.60;22.50;;;1.60;99.90;;;;;;1865147;75;21082;-86
2022/01/30 04:14:51;;;;;;;44.45;22.80;;;1.50;99.90;;;;;;1898048;73;21064;-86
2022/01/30 04:17:54;;;;;;;43.70;22.95;;;1.50;99.90;;;;;;1929889;73;21101;-86
2022/01/30 04:20:48;;;;;;;43.42;25.02;;;1.60;99.90;;;;;;1888603;73;21081;-86
2022/01/30 04:23:44;;;;;;;47.67;24.32;;;1.60;99.90;;;;;;1917266;75;21080;-86
2022/01/30 04:26:49;;;;;;;42.93;23.15;;;1.60;99.90;;;;;;1917236;75;21176;-86
2022/01/30 04:29:43;;;;;;;39.95;22.27;;;1.60;99.90;;;;;;1917261;75;21103;-86
2022/01/30 04:32:54;;;;;;;44.20;23.02;;;1.50;99.90;;;;;;1933294;73;21058;-86
2022/01/30 04:35:53;;;;;;;44.25;23.30;;;1.50;99.90;;;;;;1917233;75;21095;-85
2022/01/30 04:38:57;;;;;;;43.90;22.60;;;1.50;99.90;;;;;;1906766;73;21067;-86
2022/01/30 04:42:27;;;;;;;40.50;21.75;;;1.40;99.90;;;;;;1927901;73;21098;-87
2022/01/30 04:52:25;;;;;;;43.28;23.77;;;1.20;99.90;;;;;;1919703;73;21188;-86
2022/01/30 04:58:28;;;;;;;41.65;22.77;;;1.20;99.90;;;;;;1896802;73;21553;-86
2022/01/30 05:01:40;;;;;;;42.45;22.98;;;1.20;99.90;;;;;;1917088;75;21125;-86
2022/01/30 05:04:54;;;;;;;47.93;23.70;;;1.30;99.90;;;;;;1917085;75;21114;-86
2022/01/30 05:07:53;;;;;;;45.28;22.77;;;1.20;99.90;;;;;;1917177;75;21059;-87
2022/01/30 05:10:46;;;;;;;43.73;22.60;;;1.10;99.90;;;;;;1916960;75;21063;-87
2022/01/30 05:13:45;;;;;;;44.33;22.32;;;1.10;99.90;;;;;;1917061;75;21071;-86
2022/01/30 05:16:41;;;;;;;46.63;21.70;;;1.10;99.90;;;;;;1876956;75;21113;-87
2022/01/30 05:19:38;;;;;;;49.08;24.32;;;1.10;99.90;;;;;;1903838;75;21132;-86
2022/01/30 05:22:32;;;;;;;45.25;23.27;;;1.10;99.90;;;;;;1916782;75;21078;-86
2022/01/30 05:28:24;;;;;;;48.15;23.27;;;1.10;99.90;;;;;;1955176;72;22142;-86
2022/01/30 05:31:24;;;;;;;47.15;22.55;;;1.20;99.90;;;;;;1917777;75;21168;-86
2022/01/30 05:34:35;;;;;;;47.08;23.87;;;1.20;99.90;;;;;;1917809;75;21140;-86
2022/01/30 05:40:29;;;;;;;51.65;24.12;;;1.10;99.90;;;;;;1946724;72;22158;-86
2022/01/30 05:43:26;;;;;;;48.17;22.95;;;1.10;99.90;;;;;;1915893;74;21141;-85
2022/01/30 05:49:17;;;;;;;49.08;23.18;;;1.00;99.90;;;;;;1957861;72;22104;-86
2022/01/30 05:52:28;;;;;;;50.65;23.42;;;1.00;99.90;;;;;;1891007;75;21125;-86
2022/01/30 05:55:21;;;;;;;45.70;22.37;;;1.00;99.90;;;;;;1886125;75;21156;-86
2022/01/30 05:58:12;;;;;;;50.08;22.55;;;1.10;99.90;;;;;;1905421;75;21140;-86
2022/01/30 06:01:11;;;;;;;52.13;24.10;;;1.00;99.90;;;;;;1902093;75;21182;-86
2022/01/30 06:04:03;;;;;;;48.58;23.12;;;1.00;99.90;;;;;;1894305;75;21102;-86
2022/01/30 06:06:56;;;;;;;50.15;24.35;;;1.00;99.90;;;;;;1889842;75;21064;-87
2022/01/30 06:09:48;;;;;;;51.28;24.52;;;1.00;99.90;;;;;;1873240;76;21164;-86
2022/01/30 06:12:39;;;;;;;51.65;23.30;;;1.00;99.90;;;;;;1894992;75;21092;-86
2022/01/30 06:15:31;;;;;;;50.90;23.47;;;1.00;99.90;;;;;;1894899;75;21084;-87
2022/01/30 06:18:24;;;;;;;47.83;23.42;;;0.90;99.90;;;;;;1890316;75;21063;-87
2022/01/30 06:21:23;;;;;;;47.98;23.67;;;0.90;99.90;;;;;;1848993;75;21119;-87
2022/01/30 06:24:19;;;;;;;42.83;21.33;;;0.90;99.90;;;;;;1850932;75;21653;-86
2022/01/30 06:30:12;;;;;;;47.17;22.82;;;0.80;99.90;;;;;;1952359;72;22178;-86
2022/01/30 06:33:22;;;;;;;48.13;22.70;;;0.80;99.90;;;;;;1885507;75;21183;-86
2022/01/30 06:36:31;;;;;;;51.65;22.05;;;0.70;99.90;;;;;;1896192;75;21122;-86
2022/01/30 06:39:30;;;;;;;51.13;23.00;;;0.80;99.90;;;;;;1916624;75;21054;-85
2022/01/30 06:42:23;;;;;;;51.35;21.77;;;0.70;99.90;;;;;;1897139;75;21132;-87
2022/01/30 06:45:34;;;;;;;49.77;23.65;;;0.60;99.90;;;;;;1896068;75;21090;-87
2022/01/30 06:48:45;;;;;;;48.45;22.13;;;0.60;99.90;;;;;;1896036;75;21072;-87
2022/01/30 06:51:54;;;;;;;49.33;22.07;;;0.60;99.90;;;;;;1908151;75;21102;-86
2022/01/30 06:54:53;;;;;;;47.65;21.93;;;0.60;99.90;;;;;;1842970;75;21125;-86
2022/01/30 06:58:02;;;;;;;52.48;22.20;;;0.60;99.90;;;;;;1889555;75;21054;-86
2022/01/30 07:00:56;;;;;;;48.33;22.15;;;0.60;99.90;;;;;;1865463;75;21102;-85
2022/01/30 07:04:06;;;;;;;48.50;22.82;;;0.60;99.90;;;;;;1896515;75;21100;-78
2022/01/30 07:07:15;;;;;;;48.02;22.00;;;0.60;99.90;;;;;;1905477;75;21149;-81
2022/01/30 07:10:09;;;;;;;50.58;23.30;;;0.70;99.90;;;;;;1899771;75;21126;-81
2022/01/30 07:13:00;;;;;;;50.90;23.55;;;0.70;99.90;;;;;;1907450;75;21176;-80
2022/01/30 07:15:52;;;;;;;45.28;22.45;;;0.60;99.90;;;;;;1907004;75;21151;-80
2022/01/30 07:18:44;;;;;;;46.08;21.57;;;0.60;99.90;;;;;;1896098;73;21111;-80
2022/01/30 07:21:37;;;;;;;48.75;22.85;;;0.60;99.90;;;;;;1893681;75;21063;-80
2022/01/30 07:24:28;;;;;;;50.92;23.05;;;0.70;99.90;;;;;;1884722;75;21056;-80
2022/01/30 07:27:19;;;;;;;51.68;23.55;;;0.80;99.90;;;;;;1890601;75;21180;-82
2022/01/30 07:30:13;;;;;;;43.65;20.52;;;0.70;99.90;;;;;;1904744;74;21223;-80
2022/01/30 07:33:05;;;;;;;44.42;21.10;;;0.70;99.90;;;;;;1900425;75;21157;-80
2022/01/30 07:35:57;;;;;;;44.65;21.42;;;0.70;99.90;;;;;;1929433;73;21090;-81
2022/01/30 07:38:51;;;;;;;39.80;20.37;;;0.70;99.90;;;;;;1858491;77;21132;-81
2022/01/30 07:41:44;;;;;;;42.95;20.27;;;0.80;99.90;;;;;;1922057;74;21405;-81
2022/01/30 07:44:39;;;;;;;40.03;20.17;;;0.80;99.90;;;;;;1857738;77;21054;-80
2022/01/30 07:47:30;;;;;;;42.38;20.30;;;0.90;99.90;;;;;;1873585;74;21119;-81
2022/01/30 07:50:22;;;;;;;47.27;22.10;;;0.90;99.90;;;;;;1862031;76;21113;-80
2022/01/30 07:53:14;;;;;;;42.10;20.48;;;0.80;99.90;;;;;;1905092;74;21056;-80
2022/01/30 07:56:06;;;;;;;40.30;19.60;;;0.90;99.90;;;;;;1904573;74;21055;-81
2022/01/30 07:58:59;;;;;;;41.77;20.35;;;0.90;99.90;;;;;;1908726;74;21253;-80
2022/01/30 08:01:50;;;;;;;40.95;19.40;;;0.90;99.90;;;;;;1906644;74;21051;-80
2022/01/30 08:04:44;;;;;;;42.83;20.12;;;0.90;99.90;;;;;;1922045;73;21187;-81
2022/01/30 08:07:35;;;;;;;41.60;20.30;;;0.90;99.90;;;;;;1911706;74;21117;-81
2022/01/30 08:10:27;;;;;;;44.33;21.40;;;1.00;99.90;;;;;;1913504;74;21051;-81
2022/01/30 08:13:18;;;;;;;43.15;21.07;;;1.00;99.90;;;;;;1909199;73;21200;-80
2022/01/30 08:16:10;;;;;;;39.42;19.50;;;1.00;99.90;;;;;;1899737;74;21047;-80
2022/01/30 08:19:03;;;;;;;38.50;19.95;;;1.00;99.90;;;;;;1914964;74;21098;-82
2022/01/30 08:21:56;;;;;;;37.67;19.70;;;1.00;99.90;;;;;;1909684;74;21100;-81
2022/01/30 08:24:48;;;;;;;42.00;20.88;;;1.00;99.90;;;;;;1910160;74;21051;-80
2022/01/30 08:27:39;;;;;;;44.63;21.10;;;1.10;99.90;;;;;;1904373;74;21052;-81
2022/01/30 08:30:31;;;;;;;43.58;21.30;;;1.10;99.90;;;;;;1894487;74;21107;-82
2022/01/30 08:33:22;;;;;;;42.38;20.77;;;1.10;99.90;;;;;;1906247;75;21116;-81
2022/01/30 08:36:14;;;;;;;42.83;21.05;;;1.10;99.90;;;;;;1916802;75;21201;-80
2022/01/30 08:39:06;;;;;;;42.03;20.48;;;1.20;99.90;;;;;;1896545;75;21221;-82
2022/01/30 08:41:57;;;;;;;42.80;21.05;;;1.20;99.90;;;;;;1895343;75;21166;-80
2022/01/30 08:44:49;;;;;;;48.17;22.02;;;1.20;99.90;;;;;;1893244;75;21098;-80
2022/01/30 08:47:41;;;;;;;47.15;22.30;;;1.20;99.90;;;;;;1866675;76;21099;-81
2022/01/30 08:50:33;;;;;;;42.08;21.15;;;1.30;99.90;;;;;;1898080;75;21179;-80
2022/01/30 08:56:04;;;;;;;40.78;21.33;;;1.30;99.90;;;;;;1962585;72;22130;-81
2022/01/30 09:01:34;;;;;;;47.67;23.40;;;1.40;99.90;;;;;;1942526;72;22222;-81
2022/01/30 09:04:25;;;;;;;43.55;22.73;;;1.40;99.90;;;;;;1875077;76;21062;-81
2022/01/30 09:07:17;;;;;;;47.90;22.65;;;1.40;99.90;;;;;;1917733;75;21095;-80
2022/01/30 09:10:11;;;;;;;44.95;21.52;;;1.40;99.90;;;;;;1917664;75;21136;-80
2022/01/30 09:13:03;;;;;;;46.13;23.05;;;1.50;99.90;;;;;;1917624;75;21035;-81
2022/01/30 09:15:57;;;;;;;43.63;22.62;;;1.60;99.90;;;;;;1917742;75;21193;-80
2022/01/30 09:18:49;;;;;;;47.38;21.97;;;1.60;99.90;;;;;;1917569;75;21051;-80
2022/01/30 09:21:41;;;;;;;43.63;22.45;;;1.60;99.90;;;;;;1917634;75;21125;-80
2022/01/30 09:24:33;;;;;;;40.95;21.55;;;1.60;99.90;;;;;;1917438;75;21137;-80
2022/01/30 09:27:24;;;;;;;46.15;23.07;;;1.50;99.90;;;;;;1917447;75;21124;-81
2022/01/30 09:30:16;;;;;;;50.45;22.60;;;1.60;99.90;;;;;;1917636;75;21130;-80
2022/01/30 09:33:07;;;;;;;45.40;21.82;;;1.70;99.90;;;;;;1936574;73;21067;-82
2022/01/30 09:35:58;;;;;;;41.77;21.23;;;1.70;99.90;;;;;;1917728;75;21162;-82
2022/01/30 09:38:52;;;;;;;50.45;23.57;;;1.80;99.90;;;;;;1917773;73;21087;-80
2022/01/30 09:41:45;;;;;;;46.15;22.10;;;1.90;99.90;;;;;;1914323;73;21136;-81
2022/01/30 09:44:39;;;;;;;44.25;22.45;;;2.00;99.90;;;;;;1931871;73;21117;-81
2022/01/30 09:47:31;;;;;;;47.45;23.62;;;2.00;99.90;;;;;;1934939;73;21126;-80
2022/01/30 09:50:23;;;;;;;47.20;24.10;;;2.00;99.90;;;;;;1917749;75;21113;-80
2022/01/30 09:55:54;;;;;;;40.10;20.80;;;2.30;99.90;;;;;;1949144;72;22260;-81
2022/01/30 09:58:46;;;;;;;41.90;21.73;;;2.30;99.90;;;;;;1917601;75;21129;-80
2022/01/30 10:01:39;;;;;;;40.38;20.25;;;2.30;99.90;;;;;;1917511;75;21044;-80
2022/01/30 10:04:31;;;;;;;45.10;22.52;;;2.40;99.90;;;;;;1917274;75;21071;-78
2022/01/30 10:07:26;;;;;;;41.42;20.85;;;2.50;99.90;;;;;;1917545;74;21121;-77
2022/01/30 10:10:23;;;;;;;40.95;21.65;;;2.50;99.90;;;;;;1917800;75;21172;-77
2022/01/30 10:13:14;;;;;;;41.20;20.92;;;2.40;99.90;;;;;;1917494;75;21051;-77
2022/01/30 10:16:06;;;;;;;39.98;20.10;;;2.50;99.90;;;;;;1917597;73;21047;-77
2022/01/30 10:21:41;;;;;;;42.23;21.10;;;2.60;99.90;;;;;;1958222;72;22112;-78
2022/01/30 10:24:34;;;;;;;42.30;21.00;;;2.70;99.90;;;;;;1896561;75;21117;-78
2022/01/30 10:27:32;;;;;;;40.50;20.90;;;2.70;99.90;;;;;;1895477;75;21121;-78
2022/01/30 10:33:03;;;;;;;44.67;22.22;;;2.80;99.90;;;;;;1954891;72;22291;-78
2022/01/30 10:35:57;;;;;;;39.95;21.97;;;2.80;99.90;;;;;;1908819;74;21061;-77
2022/01/30 10:39:01;;;;;;;45.15;23.10;;;2.70;99.90;;;;;;1893259;75;21055;-77
2022/01/30 10:41:56;;;;;;;44.95;22.55;;;2.80;99.90;;;;;;1888911;75;21122;-77
2022/01/30 10:44:48;;;;;;;41.88;22.93;;;2.70;99.90;;;;;;1886019;75;21165;-77
2022/01/30 10:47:41;;;;;;;50.63;25.75;;;2.60;99.90;;;;;;1898739;75;21139;-77
2022/01/30 10:50:32;;;;;;;42.10;22.35;;;2.60;99.90;;;;;;1898481;75;21116;-78
2022/01/30 10:53:26;;;;;;;43.17;22.05;;;2.70;99.90;;;;;;1895319;75;21080;-78
2022/01/30 10:56:24;;;;;;;45.92;22.30;;;2.90;99.90;;;;;;1891847;75;21115;-77
2022/01/30 10:59:16;;;;;;;43.10;21.50;;;2.90;99.90;;;;;;1906702;75;21528;-78
2022/01/30 11:02:15;;;;;;;44.98;23.57;;;2.90;99.90;;;;;;1884705;75;21135;-78
2022/01/30 11:05:09;;;;;;;;;;;2.90;99.90;;;;;;1886514;75;21125;-78
2022/01/30 11:07:59;;;;;;;44.67;21.82;;;2.80;99.90;;;;;;1906848;75;20385;-78
2022/01/30 11:11:05;;;;;;;46.50;23.80;;;2.80;99.90;;;;;;1906847;75;21040;-78
2022/01/30 11:14:13;;;;;;;43.90;22.35;;;2.90;99.90;;;;;;1906716;75;21106;-78
2022/01/30 11:17:02;;;;;;;42.85;23.80;;;2.90;99.90;;;;;;1885081;76;21111;-78
2022/01/30 11:19:56;;;;;;;46.63;23.62;;;2.80;99.90;;;;;;1884829;75;21063;-77
2022/01/30 11:22:49;;;;;;;42.93;22.42;;;2.80;99.90;;;;;;1883056;75;21110;-78
2022/01/30 11:25:43;;;;;;;42.90;22.30;;;2.90;99.90;;;;;;1901367;75;21526;-77
2022/01/30 11:28:38;;;;;;;44.13;22.80;;;3.00;99.90;;;;;;1897443;75;21058;-78
2022/01/30 11:31:30;;;;;;;45.20;21.70;;;2.90;99.90;;;;;;1895392;75;21133;-78
2022/01/30 11:34:22;;;;;;;46.00;23.35;;;3.00;99.90;;;;;;1892375;75;21176;-77
2022/01/30 11:37:15;;;;;;;44.23;22.07;;;3.20;99.90;;;;;;1905089;75;21112;-77
2022/01/30 11:40:16;;;;;;;43.80;22.45;;;3.30;99.90;;;;;;1900151;75;21129;-77
2022/01/30 11:43:10;;;;;;;43.48;23.70;;;3.40;99.90;;;;;;1894165;75;21098;-77
2022/01/30 11:46:15;;;;;;;42.33;22.80;;;3.20;99.90;;;;;;1894491;75;21129;-77
2022/01/30 11:49:14;;;;;;;42.60;22.25;;;3.20;99.90;;;;;;1894868;75;21056;-78
2022/01/30 11:52:09;;;;;;;46.90;23.40;;;3.20;99.90;;;;;;1870065;75;25919;-77
2022/01/30 11:55:01;;;;;;;40.60;21.62;;;3.20;99.90;;;;;;1847747;77;21128;-79
2022/01/30 11:57:52;;;;;;;47.33;23.70;;;3.40;99.90;;;;;;1839166;77;21135;-77
2022/01/30 12:03:39;;;;;;;39.95;21.33;;;3.60;99.90;;;;;;1957183;72;22106;-78
2022/01/30 12:06:34;;;;;;;42.38;22.10;;;3.50;99.90;;;;;;1857988;76;21145;-79
2022/01/30 12:09:30;;;;;;;40.80;22.00;;;3.70;99.90;;;;;;1928550;74;21114;-79
2022/01/30 12:12:27;;;;;;;39.83;21.85;;;3.80;99.90;;;;;;1862320;76;21137;-78
2022/01/30 12:15:41;;;;;;;43.73;22.20;;;3.80;99.90;;;;;;1930719;74;21063;-78
2022/01/30 12:18:46;;;;;;;41.42;22.25;;;3.90;99.90;;;;;;1911839;74;21055;-78
2022/01/30 12:21:37;;;;;;;45.45;23.60;;;4.00;99.90;;;;;;1908531;75;21140;-78
2022/01/30 12:24:31;;;;;;;43.10;22.73;;;4.00;99.90;;;;;;1909626;75;21106;-79
2022/01/30 12:27:25;;;;;;;44.75;22.95;;;3.70;99.90;;;;;;1909693;75;21088;-78
2022/01/30 12:30:35;;;;;;;40.60;23.02;;;3.70;99.90;;;;;;1909221;75;21138;-78
2022/01/30 12:33:45;;;;;;;47.70;23.18;;;3.70;99.90;;;;;;1910102;75;21051;-78
2022/01/30 12:36:38;;;;;;;41.68;21.48;;;3.70;99.90;;;;;;1846204;77;21523;-78
2022/01/30 12:39:30;;;;;;;42.73;23.10;;;3.80;99.90;;;;;;1924109;74;21074;-78
2022/01/30 12:42:22;;;;;;;40.52;22.17;;;3.70;99.90;;;;;;1909305;75;21098;-77
2022/01/30 12:45:17;;;;;;;45.10;23.95;;;3.80;99.90;;;;;;1910312;75;21129;-77
2022/01/30 12:48:11;;;;;;;42.73;22.45;;;3.90;99.90;;;;;;1910345;75;21088;-77
2022/01/30 12:51:07;;;;;;;40.30;21.00;;;3.90;99.90;;;;;;1908352;75;21044;-79
2022/01/30 12:53:58;;;;;;;38.70;21.65;;;3.80;99.90;;;;;;1909573;75;21109;-78
2022/01/30 12:56:51;;;;;;;39.33;21.20;;;3.80;99.90;;;;;;1909218;75;21056;-79
2022/01/30 12:59:47;;;;;;;40.58;21.70;;;4.00;99.90;;;;;;1910815;75;21577;-80
2022/01/30 13:02:37;;;;;;;39.73;22.27;;;4.00;99.90;;;;;;1926216;73;21120;-77
2022/01/30 13:05:31;;;;;;;39.25;20.52;;;4.00;99.90;;;;;;1922313;73;21136;-78
2022/01/30 13:08:23;;;;;;;38.63;21.65;;;4.10;99.90;;;;;;1904895;73;21200;-78
2022/01/30 13:11:23;;;;;;;36.88;20.52;;;4.10;99.90;;;;;;1898393;73;21224;-78
2022/01/30 13:14:14;;;;;;;41.85;21.10;;;4.20;99.90;;;;;;1893532;74;21139;-79
2022/01/30 13:17:07;;;;;;;43.90;21.68;;;4.20;99.90;;;;;;1912720;73;21064;-79
2022/01/30 13:19:59;;;;;;;38.42;20.75;;;4.30;99.90;;;;;;1906372;74;21140;-78
2022/01/30 13:22:53;;;;;;;42.10;21.68;;;4.30;99.90;;;;;;1897394;74;21063;-79
2022/01/30 13:25:48;;;;;;;40.88;20.88;;;4.30;99.90;;;;;;1899574;74;21074;-78
2022/01/30 13:28:40;;;;;;;38.23;21.25;;;4.30;99.90;;;;;;1901176;74;21128;-79
2022/01/30 13:31:33;;;;;;;43.45;23.73;;;4.40;99.90;;;;;;1925582;73;21110;-77
2022/01/30 13:34:27;;;;;;;39.18;21.30;;;4.40;99.90;;;;;;1900566;74;21108;-77
2022/01/30 13:37:20;;;;;;;40.28;19.50;;;4.50;99.90;;;;;;1919251;73;21074;-78
2022/01/30 13:40:18;;;;;;;36.85;20.00;;;4.60;99.90;;;;;;1903347;74;21170;-78
2022/01/30 13:43:13;;;;;;;35.98;19.65;;;4.60;99.90;;;;;;1858734;76;21261;-78
2022/01/30 13:49:10;;;;;;;34.78;20.45;;;4.70;99.90;;;;;;1892893;75;21133;-77
2022/01/30 13:52:10;;;;;;;38.28;20.02;;;4.80;99.90;;;;;;1901077;74;21071;-78
2022/01/30 13:55:05;;;;;;;34.98;20.00;;;4.80;99.90;;;;;;1881071;75;21564;-77
2022/01/30 13:58:02;;;;;;;35.38;19.42;;;4.80;99.90;;;;;;1897175;75;21075;-78
2022/01/30 14:00:54;;;;;;;39.50;20.80;;;4.90;99.90;;;;;;1907168;74;21169;-79
2022/01/30 14:03:48;;;;;;;33.63;19.10;;;5.00;99.90;;;;;;1911248;73;21056;-79
2022/01/30 14:06:49;;;;;;;37.20;19.87;;;5.00;99.90;;;;;;1906581;73;21150;-78
2022/01/30 14:09:47;;;;;;;34.98;19.50;;;5.10;99.90;;;;;;1821447;77;21181;-78
2022/01/30 14:12:39;;;;;;;34.38;18.87;;;5.20;99.90;;;;;;1899165;74;21054;-78
2022/01/30 14:15:34;;;;;;;36.93;20.50;;;5.20;99.90;;;;;;1911106;73;21622;-79
2022/01/30 14:18:28;;;;;;;36.50;19.73;;;5.40;99.90;;;;;;1878076;75;21106;-78
2022/01/30 14:24:03;;;;;;;36.13;19.25;;;5.40;99.90;;;;;;1933812;72;22172;-79
2022/01/30 14:29:48;;;;;;;38.15;21.33;;;5.50;99.90;;;;;;1951264;72;22191;-78
2022/01/30 14:35:17;;;;;;;38.50;21.90;;;5.70;99.90;;;;;;1950363;72;22204;-79
2022/01/30 14:38:09;;;;;;;37.25;19.55;;;5.70;99.90;;;;;;1913086;74;21169;-79
2022/01/30 14:41:01;;;;;;;39.25;21.48;;;5.80;99.90;;;;;;1926527;74;21128;-79
2022/01/30 14:43:53;;;;;;;34.23;20.48;;;5.90;99.90;;;;;;1927939;74;21051;-78
2022/01/30 14:46:44;;;;;;;35.10;19.55;;;6.00;99.90;;;;;;1911330;74;21109;-78
2022/01/30 14:49:36;;;;;;;34.98;20.00;;;6.00;99.90;;;;;;1931505;73;21044;-78
2022/01/30 14:52:28;;;;;;;34.63;19.27;;;6.00;99.90;;;;;;1920786;74;21103;-79
2022/01/30 14:57:58;;;;;;;33.50;19.00;;;6.00;99.90;;;;;;1934270;72;22200;-78
2022/01/30 15:03:31;;;;;;;34.48;19.12;;;6.10;99.90;;;;;;1930120;72;22224;-79
2022/01/30 15:06:23;;;;;;;34.00;18.27;;;6.00;99.90;;;;;;1922211;74;21213;-77
2022/01/30 15:09:15;;;;;;;30.85;18.65;;;6.00;99.90;;;;;;1922107;74;21058;-80
2022/01/30 15:12:12;;;;;;;35.63;18.15;;;6.10;99.90;;;;;;1928845;74;21051;-78
2022/01/30 15:17:42;;;;;;;29.80;17.75;;;6.20;99.90;;;;;;1934137;72;22247;-79
2022/01/30 15:20:35;;;;;;;30.85;17.17;;;6.10;99.90;;;;;;1904033;74;21062;-79
2022/01/30 15:23:26;;;;;;;29.52;16.95;;;6.10;99.90;;;;;;1897193;75;21062;-78
2022/01/30 15:26:17;;;;;;;29.90;17.90;;;6.10;99.90;;;;;;1899419;75;21121;-78
2022/01/30 15:29:10;;;;;;;28.65;16.67;;;6.10;99.90;;;;;;1886507;75;21096;-79
2022/01/30 15:34:40;;;;;;;28.67;16.77;;;6.00;99.90;;;;;;1957038;72;22309;-78
2022/01/30 15:42:56;;;;;;;29.45;16.77;;;5.80;99.90;;;;;;1931463;72;22203;-79
2022/01/30 15:51:39;;;;;;;27.55;16.90;;;5.80;99.90;;;;;;1912671;75;21317;-79
2022/01/30 15:54:31;;;;;;;30.85;17.50;;;5.90;99.90;;;;;;1894698;75;21123;-78
2022/01/30 16:00:04;;;;;;;31.15;17.65;;;5.70;99.90;;;;;;1963750;72;22249;-78
2022/01/30 16:02:55;;;;;;;29.92;18.55;;;5.70;99.90;;;;;;1891868;74;21075;-78
2022/01/30 16:08:27;;;;;;;32.33;16.85;;;5.70;99.90;;;;;;1944616;72;22142;-78
2022/01/30 16:11:48;;;;;;;31.05;16.48;;;5.60;99.90;;;;;;1901453;75;21125;-78
2022/01/30 16:17:35;;;;;;;32.63;18.02;;;5.60;99.90;;;;;;1912174;75;21059;-77
2022/01/30 16:20:26;;;;;;;32.28;18.23;;;5.60;99.90;;;;;;1903681;75;21102;-78
2022/01/30 16:23:18;;;;;;;32.35;18.05;;;5.60;99.90;;;;;;1902050;75;21063;-78
2022/01/30 16:26:10;;;;;;;29.92;17.35;;;5.50;99.90;;;;;;1902387;75;21130;-78
2022/01/30 16:29:02;;;;;;;29.75;17.70;;;5.40;99.90;;;;;;1895113;75;21087;-77
2022/01/30 16:31:55;;;;;;;28.77;16.73;;;5.40;99.90;;;;;;1910357;75;21141;-77
2022/01/30 16:34:46;;;;;;;31.55;18.27;;;5.40;99.90;;;;;;1902925;75;21092;-79
2022/01/30 16:37:38;;;;;;;32.42;18.30;;;5.30;99.90;;;;;;1915319;75;21095;-77
2022/01/30 16:40:29;;;;;;;30.60;17.80;;;5.20;99.90;;;;;;1886246;75;21180;-78
2022/01/30 16:43:24;;;;;;;30.15;17.70;;;5.30;99.90;;;;;;1909779;75;21048;-79